createdAt,value
2018-07-09T00:00:44.300Z,8.00
2018-07-09T00:03:14.334Z,8.77
2018-07-09T00:05:45.248Z,8.33
2018-07-09T00:08:14.555Z,8.20
2018-07-09T00:11:03.438Z,8.07
2018-07-09T00:13:32.866Z,9.20
2018-07-09T00:16:01.706Z,9.57
2018-07-09T00:18:30.345Z,8.20
2018-07-09T00:20:58.832Z,9.00
2018-07-09T00:23:27.384Z,9.17
2018-07-09T00:25:56.650Z,9.80
2018-07-09T00:28:25.545Z,9.40
2018-07-09T00:30:54.060Z,9.90
2018-07-09T00:33:22.944Z,8.17
2018-07-09T00:35:51.442Z,8.93
2018-07-09T00:38:20.585Z,7.73
2018-07-09T00:40:49.112Z,9.00
2018-07-09T00:43:18.291Z,8.47
2018-07-09T00:45:46.820Z,8.70
2018-07-09T00:48:15.317Z,8.07
2018-07-09T00:50:43.807Z,7.30
2018-07-09T00:53:12.341Z,7.30
2018-07-09T00:55:40.849Z,7.90
2018-07-09T00:58:09.349Z,7.63
2018-07-09T01:00:38.021Z,8.27
2018-07-09T01:03:06.528Z,7.13
2018-07-09T01:05:35.016Z,7.23
2018-07-09T01:08:04.553Z,7.47
2018-07-09T01:10:33.433Z,7.87
2018-07-09T01:13:01.910Z,6.83
2018-07-09T01:15:30.424Z,7.57
2018-07-09T01:17:58.893Z,6.80
2018-07-09T01:20:28.015Z,8.67
2018-07-09T01:22:56.432Z,7.83
2018-07-09T01:25:24.946Z,8.07
2018-07-09T01:27:53.768Z,8.10
2018-07-09T01:30:22.267Z,8.20
2018-07-09T01:32:50.911Z,6.87
2018-07-09T01:35:19.799Z,7.40
2018-07-09T01:37:48.311Z,7.67
2018-07-09T01:40:16.774Z,8.50
2018-07-09T01:42:45.268Z,8.33
2018-07-09T01:45:13.769Z,7.97
2018-07-09T01:47:42.271Z,9.40
2018-07-09T01:50:10.772Z,8.47
2018-07-09T01:52:39.268Z,8.40
2018-07-09T01:55:07.808Z,8.43
2018-07-09T01:57:36.413Z,8.90
2018-07-09T02:00:05.195Z,7.63
2018-07-09T02:02:33.714Z,7.83
2018-07-09T02:05:02.165Z,7.43
2018-07-09T02:07:30.633Z,8.10
2018-07-09T02:09:59.116Z,8.70
2018-07-09T02:12:27.591Z,7.13
2018-07-09T02:14:56.096Z,8.80
2018-07-09T02:17:24.642Z,7.87
2018-07-09T02:19:53.143Z,7.90
2018-07-09T02:22:21.688Z,8.33
2018-07-09T02:24:50.219Z,8.40
2018-07-09T02:27:18.739Z,9.03
2018-07-09T02:29:47.245Z,9.37
2018-07-09T02:32:15.732Z,9.00
2018-07-09T02:34:44.237Z,8.60
2018-07-09T02:37:12.752Z,9.50
2018-07-09T02:39:41.472Z,8.87
2018-07-09T02:42:09.963Z,9.50
2018-07-09T02:44:38.503Z,9.37
2018-07-09T02:47:07.085Z,8.80
2018-07-09T02:49:35.561Z,9.70
2018-07-09T02:52:04.068Z,8.90
2018-07-09T02:54:32.602Z,10.50
2018-07-09T02:57:01.097Z,10.17
2018-07-09T02:59:29.561Z,10.13
2018-07-09T03:01:58.070Z,9.43
2018-07-09T03:04:26.538Z,10.23
2018-07-09T03:06:55.079Z,10.00
2018-07-09T03:09:23.573Z,8.70
2018-07-09T03:11:52.070Z,10.10
2018-07-09T03:14:20.793Z,10.70
2018-07-09T03:16:49.412Z,10.20
2018-07-09T03:19:18.027Z,9.50
2018-07-09T03:21:46.890Z,10.23
2018-07-09T03:24:15.823Z,11.70
2018-07-09T03:26:44.301Z,10.60
2018-07-09T03:29:13.113Z,10.70
2018-07-09T03:31:41.595Z,12.57
2018-07-09T03:34:10.113Z,11.33
2018-07-09T03:36:38.681Z,11.40
2018-07-09T03:39:07.187Z,10.87
2018-07-09T03:41:35.678Z,10.53
2018-07-09T03:44:04.223Z,10.73
2018-07-09T03:46:32.837Z,10.10
2018-07-09T03:49:01.383Z,10.37
2018-07-09T03:51:30.041Z,10.57
2018-07-09T03:53:58.570Z,10.33
2018-07-09T03:56:27.685Z,9.23
2018-07-09T03:58:56.192Z,10.00
2018-07-09T04:01:24.838Z,9.47
2018-07-09T04:03:53.381Z,9.27
2018-07-09T04:06:21.890Z,9.57
2018-07-09T04:08:50.516Z,10.50
2018-07-09T04:11:19.087Z,12.07
2018-07-09T04:13:47.604Z,10.93
2018-07-09T04:16:16.147Z,12.23
2018-07-09T04:18:44.959Z,14.30
2018-07-09T04:21:13.616Z,12.80
2018-07-09T04:23:42.110Z,13.20
2018-07-09T04:26:10.681Z,13.90
2018-07-09T04:28:39.162Z,13.33
2018-07-09T04:31:07.718Z,14.13
2018-07-09T04:33:36.242Z,13.80
2018-07-09T04:36:05.145Z,14.13
2018-07-09T04:38:33.663Z,14.10
2018-07-09T04:41:02.169Z,13.57
2018-07-09T04:43:30.664Z,12.70
2018-07-09T04:45:59.157Z,12.30
2018-07-09T04:48:27.990Z,12.73
2018-07-09T04:50:56.570Z,12.53
2018-07-09T04:53:25.058Z,11.73
2018-07-09T04:55:53.554Z,10.77
2018-07-09T04:58:22.039Z,12.70
2018-07-09T05:00:50.545Z,12.13
2018-07-09T05:03:19.187Z,12.33
2018-07-09T05:05:47.724Z,12.57
2018-07-09T05:08:16.249Z,12.90
2018-07-09T05:10:44.786Z,13.20
2018-07-09T05:13:13.313Z,12.33
2018-07-09T05:15:41.834Z,12.63
2018-07-09T05:18:10.433Z,11.33
2018-07-09T05:20:39.043Z,12.20
2018-07-09T05:23:07.782Z,10.93
2018-07-09T05:25:36.299Z,10.70
2018-07-09T05:28:04.883Z,11.27
2018-07-09T05:30:33.432Z,11.37
2018-07-09T05:33:01.921Z,11.90
2018-07-09T05:35:30.445Z,10.43
2018-07-09T05:37:58.937Z,11.30
2018-07-09T05:40:27.965Z,11.80
2018-07-09T05:42:56.536Z,11.57
2018-07-09T05:45:25.041Z,12.00
2018-07-09T05:47:53.758Z,12.47
2018-07-09T05:50:22.438Z,12.57
2018-07-09T05:52:50.978Z,11.30
2018-07-09T05:55:19.578Z,12.50
2018-07-09T05:57:48.113Z,11.37
2018-07-09T06:00:17.046Z,10.67
2018-07-09T06:02:45.578Z,11.03
2018-07-09T06:05:14.075Z,11.40
2018-07-09T06:07:42.697Z,10.73
2018-07-09T06:10:11.198Z,11.60
2018-07-09T06:12:39.846Z,10.57
2018-07-09T06:15:08.410Z,10.50
2018-07-09T06:17:36.971Z,11.27
2018-07-09T06:20:05.558Z,10.23
2018-07-09T06:22:34.224Z,10.70
2018-07-09T06:25:02.750Z,10.20
2018-07-09T06:27:31.305Z,11.30
2018-07-09T06:29:59.858Z,10.33
2018-07-09T06:32:28.342Z,11.00
2018-07-09T06:34:56.968Z,10.60
2018-07-09T06:37:26.315Z,12.00
2018-07-09T06:39:54.847Z,10.63
2018-07-09T06:42:23.411Z,11.73
2018-07-09T06:44:52.110Z,11.50
2018-07-09T06:47:20.637Z,10.97
2018-07-09T06:49:49.361Z,11.20
2018-07-09T06:52:17.989Z,10.70
2018-07-09T06:54:46.481Z,10.70
2018-07-09T06:57:14.978Z,11.23
2018-07-09T06:59:43.526Z,11.50
2018-07-09T07:02:12.077Z,11.90
2018-07-09T07:04:40.636Z,12.17
2018-07-09T07:07:09.202Z,13.30
2018-07-09T07:09:37.716Z,13.40
2018-07-09T07:12:06.294Z,13.60
2018-07-09T07:14:34.876Z,11.87
2018-07-09T07:17:03.406Z,12.13
2018-07-09T07:19:31.927Z,13.27
2018-07-09T07:22:00.868Z,12.97
2018-07-09T07:24:30.417Z,13.93
2018-07-09T07:26:59.802Z,14.50
2018-07-09T07:29:28.594Z,13.87
2018-07-09T07:31:57.166Z,13.03
2018-07-09T07:34:25.661Z,12.50
2018-07-09T07:36:54.263Z,9.37
2018-07-09T07:39:22.826Z,10.40
2018-07-09T07:41:52.094Z,10.43
2018-07-09T07:44:20.663Z,11.27
2018-07-09T07:46:49.194Z,10.87
2018-07-09T07:49:17.714Z,10.73
2018-07-09T07:51:46.543Z,11.03
2018-07-09T07:54:15.046Z,10.73
2018-07-09T07:56:43.561Z,11.00
2018-07-09T07:59:12.099Z,11.13
2018-07-09T08:01:40.689Z,9.47
2018-07-09T08:04:09.382Z,9.37
2018-07-09T08:06:38.070Z,10.60
2018-07-09T08:09:06.769Z,10.90
2018-07-09T08:11:48.560Z,9.37
2018-07-09T08:14:03.984Z,10.07
2018-07-09T08:16:32.674Z,9.83
2018-07-09T08:19:01.215Z,9.50
2018-07-09T08:21:29.877Z,8.20
2018-07-09T08:23:58.529Z,9.73
2018-07-09T08:26:26.937Z,7.63
2018-07-09T08:28:55.475Z,9.20
2018-07-09T08:31:24.048Z,8.40
2018-07-09T08:33:52.591Z,7.77
2018-07-09T08:36:21.170Z,7.93
2018-07-09T08:38:49.693Z,8.70
2018-07-09T08:41:18.212Z,8.77
2018-07-09T08:43:46.722Z,8.67
2018-07-09T08:46:16.248Z,7.77
2018-07-09T08:48:45.470Z,7.00
2018-07-09T08:51:13.966Z,8.20
2018-07-09T08:53:42.458Z,7.10
2018-07-09T08:56:11.354Z,7.03
2018-07-09T08:58:39.994Z,7.03
2018-07-09T09:01:08.690Z,6.87
2018-07-09T09:03:37.224Z,6.90
2018-07-09T09:06:05.717Z,5.83
2018-07-09T09:08:34.753Z,6.23
2018-07-09T09:11:03.282Z,5.67
2018-07-09T09:13:31.844Z,6.43
2018-07-09T09:16:00.414Z,5.80
2018-07-09T09:18:28.967Z,4.53
2018-07-09T09:20:57.491Z,5.77
2018-07-09T09:23:26.060Z,6.00
2018-07-09T09:25:54.581Z,5.20
2018-07-09T09:28:23.141Z,5.37
2018-07-09T09:30:51.734Z,5.90
2018-07-09T09:33:20.226Z,5.60
2018-07-09T09:35:48.935Z,4.83
2018-07-09T09:38:18.051Z,6.63
2018-07-09T09:40:46.535Z,5.43
2018-07-09T09:43:15.067Z,5.50
2018-07-09T09:45:43.570Z,6.10
2018-07-09T09:48:12.038Z,5.27
2018-07-09T09:50:40.707Z,5.70
2018-07-09T09:53:09.230Z,5.67
2018-07-09T09:55:38.085Z,4.80
2018-07-09T09:58:07.635Z,5.40
2018-07-09T10:00:41.287Z,4.10
2018-07-09T10:03:09.859Z,4.70
2018-07-09T10:05:38.415Z,5.10
2018-07-09T10:08:06.935Z,4.70
2018-07-09T10:10:35.450Z,5.17
2018-07-09T10:13:03.947Z,4.23
2018-07-09T10:15:32.822Z,4.70
2018-07-09T10:18:01.285Z,4.43
2018-07-09T10:20:29.799Z,3.40
2018-07-09T10:22:58.388Z,4.70
2018-07-09T10:25:26.850Z,4.43
2018-07-09T10:27:55.443Z,4.90
2018-07-09T10:30:23.979Z,4.97
2018-07-09T10:32:52.523Z,4.47
2018-07-09T10:35:21.619Z,4.30
2018-07-09T10:37:50.173Z,4.63
2018-07-09T10:40:18.669Z,4.17
2018-07-09T10:42:47.293Z,4.40
2018-07-09T10:45:16.611Z,4.07
2018-07-09T10:47:45.137Z,3.50
2018-07-09T10:50:13.670Z,4.47
2018-07-09T10:52:42.159Z,4.90
2018-07-09T10:55:10.752Z,4.07
2018-07-09T10:57:39.281Z,4.37
2018-07-09T11:00:07.841Z,4.27
2018-07-09T11:02:36.458Z,4.47
2018-07-09T11:05:05.029Z,5.00
2018-07-09T11:07:33.540Z,4.60
2018-07-09T11:10:02.092Z,5.30
2018-07-09T11:12:30.712Z,4.67
2018-07-09T11:14:59.212Z,4.33
2018-07-09T11:17:27.783Z,4.93
2018-07-09T11:19:56.321Z,4.63
2018-07-09T11:22:25.058Z,4.57
2018-07-09T11:24:53.603Z,4.67
2018-07-09T11:27:22.105Z,4.23
2018-07-09T11:29:50.900Z,4.23
2018-07-09T11:32:19.516Z,4.20
2018-07-09T11:34:48.028Z,4.07
2018-07-09T11:37:17.643Z,4.43
2018-07-09T11:39:46.125Z,4.43
2018-07-09T11:42:14.701Z,4.17
2018-07-09T11:44:43.210Z,3.87
2018-07-09T11:47:11.713Z,3.57
2018-07-09T11:49:40.218Z,2.83
2018-07-09T11:52:08.851Z,2.93
2018-07-09T11:54:37.385Z,3.40
2018-07-09T11:57:07.438Z,3.13
2018-07-09T11:59:36.007Z,3.00
2018-07-09T12:02:04.541Z,2.73
2018-07-09T12:04:33.045Z,3.63
2018-07-09T12:07:01.553Z,3.40
2018-07-09T12:09:30.535Z,2.90
2018-07-09T12:12:00.100Z,3.00
2018-07-09T12:14:28.574Z,3.30
2018-07-09T12:16:57.114Z,2.90
2018-07-09T12:19:26.200Z,3.23
2018-07-09T12:21:54.714Z,2.90
2018-07-09T12:24:23.436Z,2.73
2018-07-09T12:27:08.678Z,2.83
2018-07-09T12:29:37.302Z,3.33
2018-07-09T12:32:05.969Z,2.97
2018-07-09T12:34:34.647Z,3.80
2018-07-09T12:37:03.321Z,3.73
2018-07-09T12:39:32.194Z,3.10
2018-07-09T12:42:00.780Z,3.10
2018-07-09T12:44:29.600Z,3.50
2018-07-09T12:46:58.326Z,3.10
2018-07-09T12:49:27.457Z,2.90
2018-07-09T12:51:56.451Z,2.77
2018-07-09T12:54:25.221Z,3.37
2018-07-09T12:56:54.065Z,2.93
2018-07-09T12:59:22.685Z,2.60
2018-07-09T13:01:51.427Z,3.30
2018-07-09T13:04:20.374Z,2.93
2018-07-09T13:06:49.088Z,3.33
2018-07-09T13:09:17.734Z,3.27
2018-07-09T13:11:46.430Z,3.57
2018-07-09T13:14:15.373Z,3.20
2018-07-09T13:16:43.916Z,4.37
2018-07-09T13:19:12.622Z,5.07
2018-07-09T13:21:41.247Z,6.37
2018-07-09T13:24:10.225Z,5.60
2018-07-09T13:26:39.134Z,5.67
2018-07-09T13:29:08.114Z,6.20
2018-07-09T13:31:38.275Z,4.67
2018-07-09T13:34:06.954Z,4.83
2018-07-09T13:36:35.556Z,4.23
2018-07-09T13:39:05.166Z,4.33
2018-07-09T13:41:33.942Z,4.03
2018-07-09T13:44:02.678Z,5.00
2018-07-09T13:46:31.758Z,4.00
2018-07-09T13:49:00.465Z,3.63
2018-07-09T13:51:29.301Z,3.80
2018-07-09T13:53:58.138Z,4.40
2018-07-09T13:56:27.294Z,4.30
2018-07-09T13:58:56.138Z,4.43
2018-07-09T14:01:24.837Z,4.40
2018-07-09T14:03:53.893Z,5.43
2018-07-09T14:06:22.825Z,5.47
2018-07-09T14:08:51.810Z,5.43
2018-07-09T14:11:20.497Z,5.63
2018-07-09T14:13:49.286Z,5.80
2018-07-09T14:16:18.065Z,4.87
2018-07-09T14:18:46.850Z,5.30
2018-07-09T14:21:15.615Z,5.70
2018-07-09T14:23:44.452Z,5.50
2018-07-09T14:26:13.057Z,5.67
2018-07-09T14:28:41.799Z,5.97
2018-07-09T14:31:10.707Z,4.50
2018-07-09T14:33:39.441Z,4.30
2018-07-09T14:36:08.206Z,4.07
2018-07-09T14:38:36.943Z,4.70
2018-07-09T14:41:05.825Z,3.80
2018-07-09T14:43:34.650Z,4.00
2018-07-09T14:46:03.401Z,3.90
2018-07-09T14:48:32.347Z,4.30
2018-07-09T14:51:01.290Z,3.60
2018-07-09T14:53:30.513Z,3.57
2018-07-09T14:55:59.422Z,3.17
2018-07-09T14:58:28.406Z,3.70
2018-07-09T15:00:57.105Z,3.63
2018-07-09T15:03:26.006Z,4.67
2018-07-09T15:05:54.629Z,5.10
2018-07-09T15:08:23.255Z,5.67
2018-07-09T15:10:51.993Z,7.30
2018-07-09T15:13:20.730Z,6.87
2018-07-09T15:15:49.547Z,7.87
2018-07-09T15:18:18.322Z,7.03
2018-07-09T15:20:47.093Z,9.83
2018-07-09T15:23:15.822Z,8.90
2018-07-09T15:25:44.543Z,7.77
2018-07-09T15:28:13.147Z,6.60
2018-07-09T15:30:41.903Z,6.80
2018-07-09T15:33:10.741Z,6.27
2018-07-09T15:35:39.344Z,7.30
2018-07-09T15:38:08.050Z,6.83
2018-07-09T15:40:37.460Z,7.53
2018-07-09T15:43:06.314Z,7.47
2018-07-09T15:45:35.112Z,6.90
2018-07-09T15:48:04.357Z,6.50
2018-07-09T15:50:33.040Z,6.90
2018-07-09T15:53:01.634Z,6.50
2018-07-09T15:55:30.446Z,7.50
2018-07-09T15:57:59.366Z,6.00
2018-07-09T16:00:28.169Z,6.67
2018-07-09T16:02:56.853Z,6.67
2018-07-09T16:05:25.559Z,6.80
2018-07-09T16:07:54.416Z,7.10
2018-07-09T16:10:23.154Z,6.20
2018-07-09T16:12:51.776Z,5.70
2018-07-09T16:15:20.582Z,6.20
2018-07-09T16:17:49.442Z,5.57
2018-07-09T16:20:18.218Z,6.13
2018-07-09T16:22:46.966Z,5.53
2018-07-09T16:25:15.645Z,5.30
2018-07-09T16:27:44.392Z,5.47
2018-07-09T16:30:13.255Z,6.30
2018-07-09T16:32:41.929Z,5.40
2018-07-09T16:35:10.738Z,5.20
2018-07-09T16:37:39.358Z,6.00
2018-07-09T16:40:08.147Z,4.37
2018-07-09T16:42:37.167Z,4.40
2018-07-09T16:45:05.975Z,4.43
2018-07-09T16:47:34.698Z,4.80
2018-07-09T16:50:03.522Z,4.20
2018-07-09T16:52:32.275Z,3.30
2018-07-09T16:55:01.163Z,3.63
2018-07-09T16:57:29.735Z,3.50
2018-07-09T16:59:58.372Z,4.83
2018-07-09T17:02:27.018Z,3.83
2018-07-09T17:04:55.866Z,4.00
2018-07-09T17:07:24.720Z,3.90
2018-07-09T17:09:53.482Z,3.57
2018-07-09T17:12:22.102Z,3.30
2018-07-09T17:14:50.942Z,3.83
2018-07-09T17:17:19.776Z,4.30
2018-07-09T17:19:48.458Z,3.80
2018-07-09T17:22:17.395Z,3.33
2018-07-09T17:24:46.053Z,3.77
2018-07-09T17:27:15.098Z,3.57
2018-07-09T17:29:43.972Z,3.40
2018-07-09T17:32:12.592Z,3.13
2018-07-09T17:34:41.364Z,2.70
2018-07-09T17:37:10.234Z,3.00
2018-07-09T17:39:39.163Z,3.20
2018-07-09T17:42:08.145Z,2.90
2018-07-09T17:44:37.134Z,3.10
2018-07-09T17:47:05.924Z,2.90
2018-07-09T17:49:34.902Z,3.30
2018-07-09T17:52:03.589Z,3.33
2018-07-09T17:54:32.616Z,3.20
2018-07-09T17:57:01.288Z,3.40
2018-07-09T17:59:30.031Z,3.07
2018-07-09T18:01:59.060Z,3.03
2018-07-09T18:04:28.400Z,3.30
2018-07-09T18:06:57.410Z,2.90
2018-07-09T18:09:26.250Z,3.30
2018-07-09T18:11:55.227Z,2.63
2018-07-09T18:14:24.178Z,3.20
2018-07-09T18:16:52.894Z,4.40
2018-07-09T18:19:21.686Z,3.13
2018-07-09T18:21:50.873Z,3.00
2018-07-09T18:24:19.600Z,1.83
2018-07-09T18:26:48.495Z,2.50
2018-07-09T18:29:17.436Z,1.90
2018-07-09T18:31:46.423Z,2.33
2018-07-09T18:34:15.587Z,1.90
2018-07-09T18:36:44.764Z,2.20
2018-07-09T18:39:14.448Z,2.70
2018-07-09T18:41:44.487Z,2.23
2018-07-09T18:44:14.498Z,2.33
2018-07-09T18:46:44.792Z,2.17
2018-07-09T18:49:14.510Z,2.10
2018-07-09T18:51:44.386Z,2.30
2018-07-09T18:54:14.669Z,2.33
2018-07-09T18:56:44.724Z,2.57
2018-07-09T18:59:14.543Z,1.70
2018-07-09T19:01:46.466Z,1.67
2018-07-09T19:04:17.168Z,1.77
2018-07-09T19:07:00.698Z,2.07
2018-07-09T19:09:32.046Z,1.73
2018-07-09T19:12:05.045Z,2.00
2018-07-09T19:14:40.666Z,1.90
2018-07-09T19:18:22.780Z,2.20
2018-07-09T19:21:33.104Z,2.43
2018-07-09T19:24:03.140Z,1.80
2018-07-09T19:26:31.963Z,1.60
2018-07-09T19:29:00.528Z,2.03
2018-07-09T19:31:29.024Z,2.10
2018-07-09T19:33:57.593Z,1.73
2018-07-09T19:36:25.814Z,2.37
2018-07-09T19:38:53.492Z,2.13
2018-07-09T19:41:21.757Z,2.20
2018-07-09T19:43:50.168Z,1.90
2018-07-09T19:46:17.946Z,2.20
2018-07-09T19:48:45.339Z,2.43
2018-07-09T19:51:12.720Z,3.07
2018-07-09T19:53:40.241Z,2.73
2018-07-09T19:56:07.658Z,1.40
2018-07-09T19:58:35.203Z,1.83
2018-07-09T20:01:02.969Z,1.97
2018-07-09T20:03:30.392Z,1.70
2018-07-09T20:05:57.756Z,2.23
2018-07-09T20:08:30.378Z,2.10
2018-07-09T20:11:03.006Z,2.27
2018-07-09T20:14:33.197Z,2.00
2018-07-09T20:17:05.643Z,2.30
2018-07-09T20:19:34.847Z,2.40
2018-07-09T20:22:02.236Z,2.20
2018-07-09T20:24:29.590Z,1.90
2018-07-09T20:26:57.965Z,1.60
2018-07-09T20:29:25.633Z,2.43
2018-07-09T20:31:53.026Z,1.57
2018-07-09T20:34:20.398Z,2.27
2018-07-09T20:36:48.048Z,2.53
2018-07-09T20:39:15.362Z,2.00
2018-07-09T20:41:42.730Z,2.30
2018-07-09T20:44:10.183Z,2.10
2018-07-09T20:46:37.604Z,2.17
2018-07-09T20:49:05.093Z,2.17
2018-07-09T20:51:32.487Z,1.83
2018-07-09T20:53:59.887Z,1.90
2018-07-09T20:56:29.446Z,1.97
2018-07-09T20:58:56.902Z,2.07
2018-07-09T21:01:24.326Z,2.10
2018-07-09T21:03:55.742Z,2.13
2018-07-09T21:06:23.201Z,2.87
2018-07-09T21:08:50.522Z,2.30
2018-07-09T21:11:19.488Z,2.47
2018-07-09T21:13:46.913Z,2.80
2018-07-09T21:16:14.454Z,2.50
2018-07-09T21:18:41.777Z,2.13
2018-07-09T21:21:09.111Z,1.93
2018-07-09T21:23:36.445Z,2.20
2018-07-09T21:26:03.858Z,2.17
2018-07-09T21:28:31.323Z,2.07
2018-07-09T21:30:59.100Z,2.97
2018-07-09T21:33:26.495Z,2.17
2018-07-09T21:35:53.830Z,2.23
2018-07-09T21:38:21.596Z,2.10
2018-07-09T21:40:48.889Z,2.70
2018-07-09T21:43:16.200Z,1.80
2018-07-09T21:45:43.886Z,2.43
2018-07-09T21:48:11.185Z,2.37
2018-07-09T21:50:39.941Z,2.03
2018-07-09T21:53:07.329Z,2.37
2018-07-09T21:55:34.798Z,2.80
2018-07-09T21:58:03.839Z,3.07
2018-07-09T22:00:31.356Z,2.33
2018-07-09T22:02:58.834Z,2.37
2018-07-09T22:05:26.795Z,3.47
2018-07-09T22:07:54.168Z,2.63
2018-07-09T22:10:21.475Z,2.83
2018-07-09T22:12:48.877Z,2.80
2018-07-09T22:15:16.225Z,2.43
2018-07-09T22:17:44.362Z,2.73
2018-07-09T22:20:11.675Z,2.40
2018-07-09T22:22:39.063Z,2.97
2018-07-09T22:25:06.439Z,3.40
2018-07-09T22:27:33.730Z,3.13
2018-07-09T22:30:00.998Z,3.50
2018-07-09T22:32:29.574Z,2.23
2018-07-09T22:34:58.018Z,2.33
2018-07-09T22:37:26.558Z,2.67
2018-07-09T22:39:55.046Z,2.97
2018-07-09T22:42:23.505Z,4.37
2018-07-09T22:44:52.046Z,2.37
2018-07-09T22:47:20.538Z,2.90
2018-07-09T22:49:50.010Z,2.53
2018-07-09T22:52:18.526Z,2.27
2018-07-09T22:54:47.456Z,3.70
2018-07-09T22:57:15.948Z,2.63
2018-07-09T22:59:44.487Z,3.33
2018-07-09T23:02:13.230Z,2.47
2018-07-09T23:04:42.641Z,2.60
2018-07-09T23:07:11.133Z,2.00
2018-07-09T23:11:02.432Z,1.70
2018-07-09T23:13:42.906Z,1.70
2018-07-09T23:16:50.692Z,2.20
2018-07-09T23:19:35.334Z,2.00
2018-07-09T23:22:18.275Z,2.63
2018-07-09T23:24:46.165Z,2.20
2018-07-09T23:27:13.771Z,1.50
2018-07-09T23:29:41.143Z,1.80
2018-07-09T23:32:08.462Z,1.70
2018-07-09T23:34:35.812Z,1.83
2018-07-09T23:37:03.074Z,2.03
2018-07-09T23:39:30.349Z,2.27
2018-07-09T23:41:57.730Z,2.00
2018-07-09T23:44:25.607Z,1.53
2018-07-09T23:46:53.331Z,2.10
2018-07-09T23:49:21.228Z,2.07
2018-07-09T23:51:48.557Z,1.83
2018-07-09T23:54:15.824Z,1.77
2018-07-09T23:59:26.930Z,2.17
